Time;durP1;ratioP1;P1;durP2;ratioP2;P2;SDS_P1;SDS_P2;PMS_P1;PMS_P2;Temp;Humidity;BMP_temperature;BMP_pressure;BME280_temperature;BME280_humidity;BME280_pressure;Samples;Min_cycle;Max_cycle;Signal;HPM_P1;HPM_P2
2022/01/26 00:00:30;;;;;;;20.17;10.70;;;;;;;-0.86;100.00;97682.81;5064177;28;20556;-58
2022/01/26 00:05:48;;;;;;;23.53;11.50;;;;;;;-0.84;100.00;97672.44;5088191;28;20051;-58
2022/01/26 00:08:15;;;;;;;26.13;12.43;;;;;;;-0.83;100.00;97684.44;5126512;28;20047;-58
2022/01/26 00:10:43;;;;;;;28.10;12.43;;;;;;;-0.83;100.00;97671.53;5129237;28;20420;-59
2022/01/26 00:13:10;;;;;;;23.40;10.80;;;;;;;-0.80;100.00;97661.13;5128940;28;20162;-59
2022/01/26 00:15:37;;;;;;;23.73;11.10;;;;;;;-0.82;100.00;97683.56;5128410;28;20558;-58
2022/01/26 00:18:04;;;;;;;22.77;12.07;;;;;;;-0.84;100.00;97675.84;5110019;28;20088;-59
2022/01/26 00:20:38;;;;;;;26.83;11.70;;;;;;;-0.82;100.00;97673.22;5129112;28;20088;-58
2022/01/26 00:23:21;;;;;;;30.07;13.97;;;;;;;-0.84;100.00;97673.25;5129274;28;20059;-59
2022/01/26 00:26:02;;;;;;;28.20;11.53;;;;;;;-0.84;100.00;97686.16;5128855;28;20064;-59
2022/01/26 00:28:56;;;;;;;25.67;12.00;;;;;;;-0.82;100.00;97676.66;5128800;28;20063;-59
2022/01/26 00:39:45;;;;;;;30.93;12.27;;;;;;;-0.83;100.00;97687.03;5130785;27;20049;-58
2022/01/26 00:42:14;;;;;;;30.33;13.43;;;;;;;-0.84;100.00;97678.44;5132326;27;20062;-59
2022/01/26 00:44:45;;;;;;;33.90;13.93;;;;;;;-0.82;100.00;97679.25;5132735;27;20780;-59
2022/01/26 00:47:14;;;;;;;28.13;13.37;;;;;;;-0.80;100.00;97681.81;5132597;27;20472;-59
2022/01/26 00:49:41;;;;;;;30.07;14.17;;;;;;;-0.80;100.00;97687.78;5132116;27;20153;-59
2022/01/26 00:52:13;;;;;;;32.03;14.40;;;;;;;-0.80;100.00;97694.72;5130671;27;20107;-59
2022/01/26 00:54:40;;;;;;;32.00;14.37;;;;;;;-0.80;100.00;97692.94;5132770;27;20070;-59
2022/01/26 00:57:07;;;;;;;28.87;12.13;;;;;;;-0.77;100.00;97689.44;5131527;27;20047;-59
2022/01/26 00:59:35;;;;;;;26.33;12.60;;;;;;;-0.78;100.00;97686.03;5132363;27;20130;-58
2022/01/26 01:02:03;;;;;;;28.60;11.50;;;;;;;-0.78;100.00;97687.75;5132148;27;20088;-58
2022/01/26 01:04:30;;;;;;;31.17;13.60;;;;;;;-0.78;100.00;97690.34;5132259;27;20039;-57
2022/01/26 01:07:00;;;;;;;30.87;12.57;;;;;;;-0.78;100.00;97685.16;5133115;27;20058;-57
2022/01/26 01:09:32;;;;;;;30.23;12.50;;;;;;;-0.80;100.00;97676.63;5132027;27;20066;-58
2022/01/26 01:12:01;;;;;;;29.23;11.80;;;;;;;-0.76;100.00;97671.31;5132256;27;20047;-58
2022/01/26 01:14:30;;;;;;;21.80;9.97;;;;;;;-0.80;100.00;97667.13;5131498;27;20518;-58
2022/01/26 01:17:02;;;;;;;28.90;12.37;;;;;;;-0.80;100.00;97669.72;5131376;27;20518;-56
2022/01/26 01:19:35;;;;;;;26.23;11.60;;;;;;;-0.77;100.00;97672.22;5132233;27;20089;-58
2022/01/26 01:25:25;;;;;;;32.27;13.33;;;;;;;-0.77;100.00;97661.91;5132761;27;20118;-58
2022/01/26 01:27:57;;;;;;;26.03;11.67;;;;;;;-0.75;100.00;97657.56;5131461;27;20040;-58
2022/01/26 01:30:34;;;;;;;26.70;12.13;;;;;;;-0.69;100.00;97662.53;5131334;27;20035;-58
2022/01/26 01:33:08;;;;;;;24.67;11.50;;;;;;;-0.73;100.00;97653.19;5131904;27;20122;-58
2022/01/26 01:35:38;;;;;;;23.83;11.57;;;;;;;-0.76;100.00;97658.41;5113090;27;20622;-58
2022/01/26 01:38:11;;;;;;;21.83;9.90;;;;;;;-0.72;100.00;97657.44;5131307;27;20494;-59
2022/01/26 01:40:40;;;;;;;27.87;11.73;;;;;;;-0.74;100.00;97646.31;5113732;27;20041;-58
2022/01/26 01:43:09;;;;;;;25.33;12.00;;;;;;;-0.76;100.00;97647.25;5130777;27;20039;-58
2022/01/26 01:45:38;;;;;;;21.53;10.17;;;;;;;-0.78;100.00;97642.13;5131831;27;20542;-59
2022/01/26 01:48:06;;;;;;;23.80;10.80;;;;;;;-0.82;100.00;97650.84;5130474;27;20043;-58
2022/01/26 01:50:40;;;;;;;30.93;11.40;;;;;;;-0.81;100.00;97649.94;5130817;27;20107;-59
2022/01/26 01:53:07;;;;;;;19.97;10.73;;;;;;;-0.76;100.00;97647.25;5131795;27;20043;-58
2022/01/26 01:55:34;;;;;;;20.17;10.33;;;;;;;-0.78;100.00;97649.03;5131329;27;20039;-59
2022/01/26 01:58:02;;;;;;;20.13;9.70;;;;;;;-0.75;100.00;97652.38;5131521;27;20107;-58
2022/01/26 02:00:29;;;;;;;18.57;8.70;;;;;;;-0.71;100.00;97655.72;5131479;27;20043;-58
2022/01/26 02:02:57;;;;;;;19.60;9.20;;;;;;;-0.71;100.00;97642.81;5131482;27;20084;-59
2022/01/26 02:05:25;;;;;;;14.73;6.67;;;;;;;-0.75;100.00;97654.97;5131582;27;20122;-58
2022/01/26 02:07:53;;;;;;;14.83;8.17;;;;;;;-0.72;100.00;97648.88;5130940;27;20043;-58
2022/01/26 02:10:22;;;;;;;18.00;8.37;;;;;;;-0.68;100.00;97647.91;5130816;27;20042;-58
2022/01/26 02:12:53;;;;;;;15.57;7.27;;;;;;;-0.74;100.00;97655.78;5130640;27;20520;-58
2022/01/26 02:15:25;;;;;;;15.40;8.03;;;;;;;-0.74;100.00;97655.78;5131223;27;20054;-58
2022/01/26 02:20:54;;;;;;;18.47;9.57;;;;;;;-0.73;100.00;97658.34;5128444;27;20043;-58
2022/01/26 02:56:52;;;;;;;19.83;7.80;;;;;;;-0.69;100.00;97662.53;5122782;27;20051;-58
2022/01/26 02:59:47;;;;;;;14.77;8.37;;;;;;;-0.70;100.00;97658.28;5131496;27;20031;-57
2022/01/26 03:02:25;;;;;;;16.87;8.07;;;;;;;-0.74;100.00;97669.56;5096284;27;20134;-57
2022/01/26 03:04:55;;;;;;;13.93;7.73;;;;;;;-0.72;100.00;97664.38;5130866;27;20126;-58
2022/01/26 03:07:35;;;;;;;17.23;8.67;;;;;;;-0.67;100.00;97665.09;5131413;27;20127;-58
2022/01/26 03:10:09;;;;;;;18.10;8.27;;;;;;;-0.63;100.00;97669.28;5131187;27;20032;-58
2022/01/26 03:12:44;;;;;;;16.67;8.57;;;;;;;-0.66;100.00;97670.22;5131072;27;20039;-58
2022/01/26 03:15:15;;;;;;;17.80;8.20;;;;;;;-0.66;100.00;97670.22;5131012;27;20050;-59
2022/01/26 03:17:58;;;;;;;18.97;8.27;;;;;;;-0.57;100.00;97664.78;5131110;27;20046;-59
2022/01/26 03:20:28;;;;;;;17.98;8.73;;;;;;;-0.58;100.00;97667.44;5130751;27;20475;-58
2022/01/26 03:28:38;;;;;;;20.93;9.67;;;;;;;-0.67;100.00;97668.53;5128796;27;20361;-59
2022/01/26 03:34:09;;;;;;;20.93;9.87;;;;;;;-0.68;100.00;97674.56;5067301;28;20037;-59
2022/01/26 03:36:46;;;;;;;21.87;8.03;;;;;;;-0.67;100.00;97672.84;5051416;28;20098;-58
2022/01/26 03:39:15;;;;;;;21.33;8.60;;;;;;;-0.64;100.00;97673.63;5101859;28;20281;-59
2022/01/26 03:41:47;;;;;;;16.17;7.57;;;;;;;-0.65;100.00;97671.06;5130670;28;20043;-59
2022/01/26 03:44:15;;;;;;;13.97;6.60;;;;;;;-0.67;100.00;97673.69;5112698;28;20041;-58
2022/01/26 03:46:44;;;;;;;14.13;7.40;;;;;;;-0.66;100.00;97672.78;5130575;28;20094;-59
2022/01/26 03:49:13;;;;;;;16.37;8.03;;;;;;;-0.69;100.00;97682.38;5130302;28;20126;-59
2022/01/26 03:51:41;;;;;;;16.57;7.37;;;;;;;-0.71;100.00;97669.50;5130907;28;20134;-58
2022/01/26 03:54:09;;;;;;;14.23;6.07;;;;;;;-0.69;100.00;97679.78;5131407;28;20058;-58
2022/01/26 03:56:37;;;;;;;14.47;6.77;;;;;;;-0.70;100.00;97667.75;5131185;28;20531;-60
2022/01/26 03:59:06;;;;;;;10.50;4.87;;;;;;;-0.68;100.00;97677.13;5130846;28;20084;-59
2022/01/26 04:01:33;;;;;;;12.73;6.13;;;;;;;-0.69;100.00;97659.97;5130737;28;20130;-59
2022/01/26 04:04:01;;;;;;;9.63;4.87;;;;;;;-0.72;100.00;97670.38;5129677;28;20058;-58
2022/01/26 04:06:29;;;;;;;16.30;6.30;;;;;;;-0.72;100.00;97677.28;5130680;28;20050;-58
2022/01/26 04:08:56;;;;;;;11.60;6.03;;;;;;;-0.72;100.00;97672.94;5130552;28;20089;-58
2022/01/26 04:14:09;;;;;;;;;;;;;;;-0.67;100.00;97673.69;5131996;27;20027;-58
2022/01/26 04:16:38;;;;;;;16.10;7.40;;;;;;;-0.70;100.00;97671.19;5135137;27;19980;-59
2022/01/26 04:19:06;;;;;;;15.33;6.63;;;;;;;-0.72;100.00;97669.53;5134727;27;20479;-58
2022/01/26 04:21:46;;;;;;;13.27;6.33;;;;;;;-0.70;100.00;97652.25;5134329;27;20043;-59
2022/01/26 04:24:18;;;;;;;19.27;7.87;;;;;;;-0.72;100.00;97675.53;5134084;27;20039;-58
2022/01/26 04:26:50;;;;;;;18.83;7.23;;;;;;;-0.69;100.00;97679.78;5134408;27;20058;-58
2022/01/26 04:29:23;;;;;;;13.93;6.77;;;;;;;-0.70;100.00;97673.78;5134119;27;20084;-57
2022/01/26 04:31:50;;;;;;;15.40;6.70;;;;;;;-0.70;100.00;97676.34;5134045;27;20058;-59
2022/01/26 04:34:17;;;;;;;18.93;7.30;;;;;;;-0.67;100.00;97667.66;5134085;27;20039;-60
2022/01/26 04:36:50;;;;;;;14.50;7.20;;;;;;;-0.65;100.00;97681.41;5133855;27;20415;-60
2022/01/26 04:39:22;;;;;;;17.73;7.05;;;;;;;-0.65;100.00;97674.47;5135508;27;20035;-60
2022/01/26 04:41:53;;;;;;;20.30;8.83;;;;;;;-0.60;100.00;97680.41;5115324;27;20043;-59
2022/01/26 04:44:24;;;;;;;16.30;6.90;;;;;;;-0.67;100.00;97683.16;5133772;27;20495;-59
2022/01/26 04:46:52;;;;;;;18.63;7.70;;;;;;;-0.69;100.00;97678.03;5133995;27;20422;-59
2022/01/26 04:49:20;;;;;;;12.10;6.10;;;;;;;-0.69;100.00;97674.63;5133578;27;21960;-59
2022/01/26 04:51:47;;;;;;;12.00;6.63;;;;;;;-0.67;100.00;97684.03;5133954;27;20135;-58
2022/01/26 04:54:14;;;;;;;15.07;6.87;;;;;;;-0.64;100.00;97681.38;5133600;27;20576;-59
2022/01/26 04:56:41;;;;;;;13.63;6.03;;;;;;;-0.69;100.00;97667.69;5133457;27;20059;-59
2022/01/26 04:59:08;;;;;;;18.20;7.23;;;;;;;-0.69;100.00;97674.63;5133504;27;20385;-58
2022/01/26 05:01:37;;;;;;;22.77;6.73;;;;;;;-0.66;100.00;97679.69;5133374;27;20490;-58
2022/01/26 05:04:05;;;;;;;12.40;6.80;;;;;;;-0.64;100.00;97673.63;5133532;27;20118;-59
2022/01/26 05:06:31;;;;;;;14.73;7.00;;;;;;;-0.62;100.00;97681.31;5115288;27;20066;-59
2022/01/26 05:08:58;;;;;;;14.70;7.63;;;;;;;-0.63;100.00;97674.44;5133487;27;20061;-59
2022/01/26 05:11:33;;;;;;;16.43;7.50;;;;;;;-0.67;100.00;97673.69;5133387;27;20372;-59
2022/01/26 05:14:00;;;;;;;15.07;7.10;;;;;;;-0.67;100.00;97675.41;5133279;27;20511;-59
2022/01/26 05:16:28;;;;;;;17.30;7.17;;;;;;;-0.67;100.00;97671.13;5133145;27;20099;-60
2022/01/26 05:18:57;;;;;;;20.73;9.37;;;;;;;-0.66;100.00;97669.34;5133233;27;20122;-60
2022/01/26 05:21:26;;;;;;;19.07;9.37;;;;;;;-0.60;100.00;97667.50;5132967;27;20039;-60
2022/01/26 05:23:53;;;;;;;20.73;8.10;;;;;;;-0.52;100.00;97675.03;5133119;27;20043;-59
2022/01/26 05:26:20;;;;;;;18.67;8.47;;;;;;;-0.58;100.00;97673.44;5131922;27;20039;-59
2022/01/26 05:28:48;;;;;;;18.27;8.07;;;;;;;-0.57;100.00;97669.13;5132516;27;20114;-58
2022/01/26 05:31:15;;;;;;;22.83;10.73;;;;;;;-0.59;100.00;97673.47;5133390;27;20441;-60
2022/01/26 05:33:42;;;;;;;18.57;8.47;;;;;;;-0.58;100.00;97675.19;5132831;27;20042;-59
2022/01/26 05:36:11;;;;;;;18.53;7.77;;;;;;;-0.56;100.00;97669.09;5133076;27;20133;-59
2022/01/26 05:38:38;;;;;;;22.23;9.00;;;;;;;-0.61;100.00;97670.94;5132839;27;20043;-59
2022/01/26 05:41:05;;;;;;;20.37;8.50;;;;;;;-0.59;100.00;97671.75;5132820;27;20043;-59
2022/01/26 05:43:33;;;;;;;20.97;9.73;;;;;;;-0.60;100.00;97679.53;5132618;27;20043;-59
2022/01/26 05:46:05;;;;;;;22.07;8.03;;;;;;;-0.60;100.00;97680.41;5132658;27;20135;-59
2022/01/26 05:48:33;;;;;;;20.23;10.00;;;;;;;-0.60;100.00;97670.06;5132538;27;20049;-58
2022/01/26 05:51:05;;;;;;;16.03;8.00;;;;;;;-0.58;100.00;97686.34;5132164;27;20047;-59
2022/01/26 05:53:33;;;;;;;17.43;7.50;;;;;;;-0.55;100.00;97672.50;5132630;27;20708;-60
2022/01/26 05:56:01;;;;;;;18.33;7.87;;;;;;;-0.58;100.00;97688.94;5132079;27;20069;-59
2022/01/26 05:58:28;;;;;;;20.73;8.00;;;;;;;-0.59;100.00;97682.09;5132369;27;20043;-59
2022/01/26 06:00:58;;;;;;;17.17;7.97;;;;;;;-0.60;100.00;97680.41;5131143;27;20480;-58
2022/01/26 06:03:25;;;;;;;17.97;8.13;;;;;;;-0.62;100.00;97691.63;5133399;27;20039;-60
2022/01/26 06:05:53;;;;;;;22.00;7.50;;;;;;;-0.63;100.00;97692.53;5133810;27;20463;-59
2022/01/26 06:08:21;;;;;;;16.93;7.70;;;;;;;-0.61;100.00;97686.44;5132234;27;20043;-59
2022/01/26 06:10:49;;;;;;;15.30;7.33;;;;;;;-0.60;100.00;97677.81;5132282;27;20043;-59
2022/01/26 06:13:16;;;;;;;21.07;8.27;;;;;;;-0.64;100.00;97689.13;5132409;27;20039;-59
2022/01/26 06:15:44;;;;;;;17.50;7.63;;;;;;;-0.58;100.00;97686.34;5133154;27;20103;-59
2022/01/26 06:18:11;;;;;;;18.63;7.70;;;;;;;-0.58;100.00;97701.03;5132475;27;20035;-59
2022/01/26 06:20:39;;;;;;;20.33;7.77;;;;;;;-0.59;100.00;97689.84;5132459;27;20035;-59
2022/01/26 06:23:06;;;;;;;16.40;7.07;;;;;;;-0.58;100.00;97698.44;5131648;27;20042;-57
2022/01/26 06:25:33;;;;;;;20.10;7.80;;;;;;;-0.55;100.00;97699.19;5131912;27;20122;-58
2022/01/26 06:28:07;;;;;;;16.23;7.17;;;;;;;-0.45;100.00;97697.22;5131887;27;20054;-57
2022/01/26 06:30:34;;;;;;;17.67;7.37;;;;;;;-0.38;100.00;97702.22;5131835;27;20038;-58
2022/01/26 06:33:02;;;;;;;16.47;8.03;;;;;;;-0.38;100.00;97701.34;5131544;27;20133;-59
2022/01/26 06:35:29;;;;;;;17.93;6.70;;;;;;;-0.33;100.00;97700.34;5131723;27;20504;-58
2022/01/26 06:37:56;;;;;;;15.57;7.13;;;;;;;-0.36;100.00;97700.41;5130873;27;20046;-58
2022/01/26 06:40:24;;;;;;;12.00;7.27;;;;;;;-0.33;100.00;97702.06;5131454;27;20039;-59
2022/01/26 06:42:55;;;;;;;15.97;7.23;;;;;;;-0.33;100.00;97708.09;5112964;27;20046;-59
2022/01/26 06:45:26;;;;;;;15.70;6.57;;;;;;;-0.29;100.00;97707.13;5132569;27;20084;-58
2022/01/26 06:48:27;;;;;;;14.83;6.47;;;;;;;-0.25;100.00;97702.72;5132145;27;20039;-58
2022/01/26 06:50:55;;;;;;;13.40;6.67;;;;;;;-0.21;100.00;97702.59;5131210;27;20464;-58
2022/01/26 06:53:22;;;;;;;15.97;6.80;;;;;;;-0.19;100.00;97703.41;5131342;27;20039;-58
2022/01/26 06:55:49;;;;;;;13.00;6.30;;;;;;;-0.17;100.00;97711.94;5132766;27;20122;-58
2022/01/26 06:58:17;;;;;;;13.63;5.93;;;;;;;-0.09;100.00;97712.59;5131398;27;20138;-58
2022/01/26 07:00:45;;;;;;;10.33;6.33;;;;;;;-0.15;100.00;97709.34;5131200;27;20035;-58
2022/01/26 07:03:12;;;;;;;13.93;6.93;;;;;;;-0.18;100.00;97710.25;5131073;27;20127;-59
2022/01/26 07:05:40;;;;;;;11.87;6.67;;;;;;;-0.12;100.00;97717.00;5130944;27;20038;-59
2022/01/26 07:08:08;;;;;;;17.97;6.50;;;;;;;-0.13;100.00;97716.16;5131195;27;20043;-59
2022/01/26 07:10:35;;;;;;;13.40;6.73;;;;;;;-0.12;100.00;97720.44;5131057;27;20162;-59
2022/01/26 07:13:02;;;;;;;13.50;5.73;;;;;;;-0.05;100.00;97718.53;5131398;27;20112;-60
2022/01/26 07:23:55;;;;;;;14.63;6.93;;;;;;;0.20;100.00;97712.63;5130566;27;20038;-59
2022/01/26 07:26:27;;;;;;;15.37;6.97;;;;;;;0.30;100.00;97708.03;5131060;27;20540;-59
2022/01/26 07:28:54;;;;;;;13.27;6.30;;;;;;;0.31;100.00;97715.75;5130561;27;20467;-59
2022/01/26 07:31:22;;;;;;;14.10;6.80;;;;;;;0.37;100.00;97715.59;5130785;27;20478;-59
2022/01/26 07:33:54;;;;;;;12.07;5.63;;;;;;;0.68;100.00;97715.53;5129814;28;20042;-59
2022/01/26 07:36:21;;;;;;;13.20;7.00;;;;;;;0.83;100.00;97723.66;5130387;28;20039;-58
2022/01/26 07:38:51;;;;;;;17.13;6.33;;;;;;;0.91;100.00;97719.13;5130202;28;20035;-58
2022/01/26 07:41:18;;;;;;;14.80;6.83;;;;;;;0.69;100.00;97723.25;5130565;28;20067;-58
2022/01/26 07:43:45;;;;;;;12.77;6.53;;;;;;;0.58;100.00;97729.63;5130588;28;20106;-58
2022/01/26 07:46:14;;;;;;;12.00;6.90;;;;;;;0.74;100.00;97723.09;5130749;28;20055;-58
2022/01/26 07:48:41;;;;;;;15.27;7.10;;;;;;;0.95;100.00;97722.44;5130864;27;20455;-58
2022/01/26 07:51:10;;;;;;;13.93;6.63;;;;;;;0.88;100.00;97726.13;5134479;27;20551;-59
2022/01/26 07:53:37;;;;;;;9.80;5.77;;;;;;;0.72;100.00;97717.97;5134519;27;20039;-61
2022/01/26 07:56:04;;;;;;;13.87;7.30;;;;;;;0.59;100.00;97726.16;5133777;27;20054;-61
2022/01/26 07:58:31;;;;;;;12.03;6.07;;;;;;;0.51;100.00;97728.97;5134846;27;20043;-65
2022/01/26 08:00:58;;;;;;;12.37;5.97;;;;;;;0.50;100.00;97736.78;5134352;27;20135;-66
2022/01/26 08:03:32;;;;;;;8.40;5.57;;;;;;;0.59;100.00;97732.19;5134834;27;20487;-57
2022/01/26 08:05:59;;;;;;;;;;;;;;;0.83;100.00;97730.59;5134182;27;20392;-57
2022/01/26 08:08:28;;;;;;;12.73;5.47;;;;;;;1.13;100.00;97727.06;5134528;27;19944;-58
2022/01/26 08:10:56;;;;;;;10.10;6.10;;;;;;;1.30;100.00;97729.97;5134174;27;20502;-58
2022/01/26 08:13:23;;;;;;;11.00;5.97;;;;;;;1.44;100.00;97729.50;5134526;27;20070;-64
2022/01/26 08:15:50;;;;;;;10.03;5.40;;;;;;;1.59;100.00;97729.00;5115884;27;20138;-57
2022/01/26 08:18:17;;;;;;;9.47;5.30;;;;;;;1.49;100.00;97740.56;5134152;27;20082;-58
2022/01/26 08:20:44;;;;;;;9.90;5.83;;;;;;;1.51;100.00;97737.03;5134293;27;20039;-58
2022/01/26 08:23:11;;;;;;;7.93;4.50;;;;;;;1.34;100.00;97745.34;5134256;27;20043;-59
2022/01/26 08:25:40;;;;;;;9.80;5.73;;;;;;;1.14;100.00;97752.06;5133949;27;20121;-58
2022/01/26 08:28:12;;;;;;;9.43;5.57;;;;;;;1.21;100.00;97751.84;5133713;27;20031;-56
2022/01/26 08:30:39;;;;;;;8.00;5.33;;;;;;;1.25;100.00;97750.84;5134459;27;20042;-57
2022/01/26 08:33:07;;;;;;;9.93;5.07;;;;;;;1.38;100.00;97752.13;5133663;27;20058;-57
2022/01/26 08:35:35;;;;;;;8.70;4.67;;;;;;;1.30;100.00;97748.09;5133369;27;20035;-57
2022/01/26 08:38:02;;;;;;;9.77;4.13;;;;;;;1.32;100.00;97745.47;5134070;27;20043;-58
2022/01/26 08:40:33;;;;;;;9.57;3.90;;;;;;;1.34;100.00;97749.69;5133915;27;20039;-58
2022/01/26 08:43:02;;;;;;;6.43;4.27;;;;;;;1.46;100.00;97751.03;5133517;27;20069;-57
2022/01/26 08:45:29;;;;;;;7.60;4.33;;;;;;;1.58;100.00;97745.47;5133138;27;20051;-59
2022/01/26 08:47:56;;;;;;;8.57;4.40;;;;;;;1.47;100.00;97750.97;5133841;27;20046;-57
2022/01/26 08:50:23;;;;;;;11.00;5.20;;;;;;;1.45;100.00;97752.78;5134235;27;20045;-58
2022/01/26 08:52:50;;;;;;;6.90;3.77;;;;;;;1.24;100.00;97753.47;5115301;27;20407;-59
2022/01/26 08:55:17;;;;;;;9.07;4.47;;;;;;;1.10;100.00;97756.50;5133110;27;20509;-58
2022/01/26 08:57:44;;;;;;;8.50;4.20;;;;;;;1.14;100.00;97747.72;5135089;27;20062;-63
2022/01/26 09:00:16;;;;;;;9.17;4.33;;;;;;;1.02;100.00;97757.63;5133436;27;20053;-57
2022/01/26 09:02:44;;;;;;;6.83;3.57;;;;;;;0.84;100.00;97764.22;5132826;27;20399;-58
2022/01/26 09:05:11;;;;;;;7.00;4.57;;;;;;;0.75;100.00;97764.47;5133492;27;20035;-58
2022/01/26 09:07:40;;;;;;;8.00;4.13;;;;;;;0.60;100.00;97764.94;5133174;27;20035;-62
2022/01/26 09:10:08;;;;;;;7.93;3.87;;;;;;;0.64;100.00;97769.13;5114553;27;20471;-58
2022/01/26 09:12:37;;;;;;;9.23;4.10;;;;;;;0.59;100.00;97773.59;5133272;27;20063;-59
2022/01/26 09:15:06;;;;;;;11.13;5.27;;;;;;;0.56;100.00;97763.31;5132546;27;20047;-63
2022/01/26 09:17:35;;;;;;;6.43;4.40;;;;;;;0.53;100.00;97767.75;5132562;27;20043;-62
2022/01/26 09:20:03;;;;;;;9.13;3.73;;;;;;;0.43;100.00;97764.59;5132823;27;20731;-64
2022/01/26 09:22:30;;;;;;;5.90;3.87;;;;;;;0.29;100.00;97764.13;5131816;27;20050;-64
2022/01/26 09:24:57;;;;;;;8.33;3.97;;;;;;;0.57;100.00;97759.84;5132005;27;20039;-64
2022/01/26 09:27:24;;;;;;;8.43;4.50;;;;;;;0.62;100.00;97747.63;5132758;27;20035;-64
2022/01/26 09:29:51;;;;;;;8.00;4.07;;;;;;;0.73;100.00;97765.44;5131078;27;20161;-64
2022/01/26 09:32:18;;;;;;;9.57;4.53;;;;;;;0.73;100.00;97755.06;5132033;27;20126;-64
2022/01/26 09:34:46;;;;;;;8.33;4.77;;;;;;;0.75;100.00;97763.66;5113133;27;20053;-64
2022/01/26 09:37:16;;;;;;;7.77;4.23;;;;;;;0.73;100.00;97771.47;5132041;27;20075;-65
2022/01/26 09:39:45;;;;;;;9.60;4.37;;;;;;;0.76;100.00;97766.19;5131857;27;20058;-66
2022/01/26 09:42:16;;;;;;;10.60;4.70;;;;;;;0.98;100.00;97761.22;5132037;27;20043;-65
2022/01/26 09:44:44;;;;;;;7.43;4.97;;;;;;;1.12;100.00;97767.66;5131930;27;20039;-65
2022/01/26 09:47:11;;;;;;;11.93;4.53;;;;;;;1.18;100.00;97758.84;5130882;27;20049;-65
2022/01/26 09:49:39;;;;;;;8.00;5.10;;;;;;;1.32;100.00;97761.84;5130596;27;20050;-65
2022/01/26 09:52:14;;;;;;;9.43;5.30;;;;;;;1.34;100.00;97760.88;5131334;27;20035;-65
2022/01/26 09:54:41;;;;;;;12.27;5.03;;;;;;;1.52;100.00;97749.09;5131784;27;20704;-65
2022/01/26 09:57:09;;;;;;;8.00;4.13;;;;;;;1.52;100.00;97737.88;5131971;27;20832;-66
2022/01/26 09:59:36;;;;;;;6.23;3.70;;;;;;;1.44;99.41;97751.06;5131573;27;20054;-64
2022/01/26 10:02:04;;;;;;;7.30;4.00;;;;;;;1.58;98.77;97740.28;5130980;27;20506;-65
2022/01/26 10:04:55;;;;;;;6.83;4.00;;;;;;;1.82;97.32;97742.88;5131013;27;20070;-66
2022/01/26 10:07:46;;;;;;;6.47;3.33;;;;;;;2.19;97.55;97747.63;5120052;27;20043;-66
2022/01/26 10:10:34;;;;;;;6.38;3.70;;;;;;;2.17;96.58;97745.09;5130276;27;20043;-67
2022/01/26 10:16:04;;;;;;;8.43;4.10;;;;;;;2.45;96.68;97739.75;5131502;27;20455;-68
2022/01/26 10:18:32;;;;;;;9.70;3.20;;;;;;;2.43;96.19;97741.56;5128245;27;20464;-67
2022/01/26 10:21:01;;;;;;;8.03;3.93;;;;;;;2.38;94.23;97733.94;5123670;27;20114;-65
2022/01/26 10:23:35;;;;;;;6.83;3.67;;;;;;;2.12;93.03;97736.63;5131229;27;20084;-67
2022/01/26 10:26:06;;;;;;;5.77;2.67;;;;;;;2.26;93.98;97734.38;5131859;27;20063;-67
2022/01/26 10:28:47;;;;;;;3.80;2.60;;;;;;;2.20;92.39;97739.78;5130343;27;20078;-66
2022/01/26 10:31:16;;;;;;;5.63;2.20;;;;;;;2.27;91.23;97727.44;5129977;27;20087;-64
2022/01/26 10:33:58;;;;;;;4.10;2.30;;;;;;;2.46;92.19;97731.91;5111144;27;20051;-66
2022/01/26 10:36:25;;;;;;;6.10;2.37;;;;;;;2.51;91.72;97727.38;5129784;27;20062;-65
2022/01/26 10:39:04;;;;;;;2.70;1.80;;;;;;;2.46;90.14;97726.72;5131424;27;20142;-66
2022/01/26 10:41:31;;;;;;;5.23;1.63;;;;;;;2.30;89.17;97722.13;5129760;27;20045;-60
2022/01/26 10:44:01;;;;;;;4.00;1.80;;;;;;;2.19;88.78;97716.50;5130206;27;20104;-60
2022/01/26 10:46:30;;;;;;;4.47;2.20;;;;;;;2.21;88.79;97714.69;5129584;27;20055;-58
2022/01/26 10:49:08;;;;;;;2.43;1.40;;;;;;;2.21;87.87;97707.75;5129895;27;20391;-58
2022/01/26 10:51:52;;;;;;;2.47;1.40;;;;;;;2.26;87.74;97703.25;5110460;27;20042;-58
2022/01/26 10:54:27;;;;;;;2.83;1.80;;;;;;;2.12;88.14;97692.50;5129841;27;20126;-60
2022/01/26 10:56:57;;;;;;;2.33;1.63;;;;;;;2.34;86.68;97696.03;5130432;27;20047;-59
2022/01/26 10:59:24;;;;;;;3.33;1.90;;;;;;;2.55;87.17;97703.00;5128920;27;20042;-59
2022/01/26 11:01:51;;;;;;;2.70;2.10;;;;;;;2.39;87.14;97694.09;5129927;27;20055;-59
2022/01/26 11:04:19;;;;;;;4.20;2.23;;;;;;;2.39;87.62;97708.84;5129171;27;20414;-59
2022/01/26 11:06:53;;;;;;;6.13;2.87;;;;;;;2.18;87.42;97712.19;5126259;27;20043;-59
2022/01/26 11:09:27;;;;;;;4.10;2.40;;;;;;;2.13;87.42;97703.72;5129167;27;20047;-63
2022/01/26 11:12:01;;;;;;;3.83;2.30;;;;;;;2.24;87.72;97704.19;5130222;27;20104;-63
2022/01/26 11:14:39;;;;;;;5.27;2.50;;;;;;;2.10;88.63;97712.47;5130382;27;20047;-63
2022/01/26 11:17:06;;;;;;;3.47;2.47;;;;;;;2.27;89.83;97706.66;5128550;27;20047;-64
2022/01/26 11:19:44;;;;;;;8.40;4.30;;;;;;;2.17;89.79;97705.34;5129903;27;20187;-63
2022/01/26 11:22:15;;;;;;;7.20;4.00;;;;;;;2.26;90.67;97699.78;5129424;27;20706;-63
2022/01/26 11:24:48;;;;;;;5.47;3.00;;;;;;;2.03;90.20;97695.41;5129479;27;20134;-63
2022/01/26 11:27:17;;;;;;;6.05;3.58;;;;;;;2.19;92.25;97693.13;5128678;27;20035;-63
2022/01/26 11:29:48;;;;;;;7.10;2.87;;;;;;;2.15;90.66;97695.00;5129533;27;20046;-62
2022/01/26 11:32:21;;;;;;;5.73;3.30;;;;;;;2.11;91.37;97687.38;5129928;27;20042;-64
2022/01/26 11:34:51;;;;;;;9.02;3.95;;;;;;;2.48;93.09;97685.97;5129632;27;20115;-62
2022/01/26 11:37:26;;;;;;;5.20;3.07;;;;;;;2.47;91.51;97684.25;5128801;28;20096;-62
2022/01/26 11:45:34;;;;;;;6.40;3.60;;;;;;;2.53;90.45;97689.22;5129424;28;20059;-62
2022/01/26 11:48:05;;;;;;;5.03;3.03;;;;;;;2.70;90.96;97686.00;5129531;28;20024;-63
2022/01/26 11:50:33;;;;;;;8.80;4.30;;;;;;;2.83;90.81;97689.81;5129420;28;20054;-63
2022/01/26 11:53:03;;;;;;;5.87;3.33;;;;;;;2.65;89.44;97677.53;5129468;28;20047;-62
2022/01/26 11:55:41;;;;;;;7.53;3.73;;;;;;;2.45;87.96;97685.22;5129322;28;20043;-62
2022/01/26 11:58:11;;;;;;;5.17;3.20;;;;;;;2.36;87.84;97683.00;5129393;28;20534;-65
2022/01/26 12:00:46;;;;;;;6.47;3.83;;;;;;;2.35;89.36;97670.88;5128062;28;20045;-62
2022/01/26 12:03:29;;;;;;;7.27;3.77;;;;;;;2.17;89.46;97663.81;5126035;28;20455;-63
2022/01/26 12:05:58;;;;;;;6.15;3.90;;;;;;;2.13;89.69;97673.44;5129228;28;20043;-62
2022/01/26 12:08:31;;;;;;;8.93;2.90;;;;;;;2.26;90.06;97674.69;5128602;28;20092;-62
2022/01/26 12:11:00;;;;;;;6.07;3.13;;;;;;;2.09;88.44;97665.81;5128055;28;20111;-62
2022/01/26 12:13:29;;;;;;;6.83;3.37;;;;;;;1.85;89.25;97688.31;5129042;28;20123;-62
2022/01/26 12:16:04;;;;;;;5.57;3.10;;;;;;;1.60;91.76;97694.38;5129809;27;20047;-62
2022/01/26 12:18:36;;;;;;;5.53;3.43;;;;;;;1.50;92.84;97687.81;5129122;28;20047;-62
2022/01/26 12:32:25;;;;;;;7.53;3.10;;;;;;;1.06;90.74;97704.84;5128635;28;20041;-62
2022/01/26 12:35:01;;;;;;;4.77;2.60;;;;;;;0.89;92.30;97700.19;5111886;27;20384;-63
2022/01/26 12:37:40;;;;;;;3.33;2.47;;;;;;;0.74;92.39;97708.44;5132045;27;20043;-63
2022/01/26 12:43:05;;;;;;;4.23;2.77;;;;;;;0.89;93.68;97705.38;5132622;27;20165;-62
2022/01/26 12:45:36;;;;;;;4.70;2.40;;;;;;;0.93;93.52;97704.38;5132513;27;20044;-63
2022/01/26 12:48:09;;;;;;;4.67;2.63;;;;;;;0.98;92.96;97706.81;5132533;27;20050;-63
2022/01/26 12:50:38;;;;;;;5.80;3.97;;;;;;;1.00;93.16;97715.38;5132331;27;20039;-62
2022/01/26 12:53:13;;;;;;;7.00;2.87;;;;;;;1.22;94.75;97706.03;5131649;27;20134;-63
2022/01/26 12:55:42;;;;;;;6.67;3.07;;;;;;;1.51;94.73;97710.28;5132604;27;20116;-62
2022/01/26 12:58:11;;;;;;;5.03;3.07;;;;;;;1.28;92.75;97704.09;5132165;27;20539;-63
2022/01/26 13:00:40;;;;;;;7.27;3.07;;;;;;;1.21;93.19;97718.16;5132253;27;20130;-63
2022/01/26 13:03:16;;;;;;;5.93;3.23;;;;;;;1.07;93.71;97715.16;5131729;27;20467;-63
2022/01/26 13:05:43;;;;;;;7.83;2.80;;;;;;;0.81;93.81;97709.94;5113492;27;20039;-62
2022/01/26 13:08:11;;;;;;;6.53;3.20;;;;;;;0.75;94.75;97707.53;5132037;27;20574;-63
2022/01/26 13:10:40;;;;;;;5.43;3.10;;;;;;;0.73;96.35;97703.28;5132262;27;20070;-63